Terminal Aerodrome Forecast
Issued by NWS

Home | Current Version | Previous Version | Text Only | Print | Product List | Glossary On
Versions: 1 2 3 4 5 6 7 8 9 10 11 12 13 14 15 16 17 18 19 20 21 22 23 24 25 26 27 28 29 30 31
000
FTUS43 KDLH 020500
TAFHYR
TAF
KHYR 020532Z 0206/0306 00000KT P6SM VCSH SKC
     FM020900 00000KT 3SM BR SCT150
      TEMPO 0209/0212 1SM BR
     FM021300 25004KT P6SM SCT080
     FM021900 25008KT P6SM VCSH SCT060
     FM030100 VRB03KT P6SM SCT150=

USA.gov is the U.S. government's official web portal to all federal, state and local government web resources and services.